Terminal Aerodrome Forecast
Issued by NWS

Home | Current Version | Previous Version | Text Only | Print | Product List | Glossary On
Versions: 1 2 3 4 5 6 7 8 9 10 11 12 13 14 15 16 17 18 19 20 21
000
FTUS42 KTAE 040500
TAFDHN
TAF
KDHN 040521Z 0406/0506 19005KT 5SM BR OVC006
     FM040900 19003KT 1/4SM FG OVC001
     FM041400 20008KT 4SM BR OVC015
     FM041700 20010G15KT P6SM SCT025
     FM050100 19007KT P6SM BKN015=

USA.gov is the U.S. government's official web portal to all federal, state and local government web resources and services.